Ocean Tower — WDE4689 — position and weather

sailwx.info

Track history (hours):
 
Tides and Currents Weather Stations Pressure Air Temp Water Temp Dewpoint Dewpoint Depression Visibility Wind Speed Wind Dir Waves Ship Positions

Ocean Tower

Owner: Tug Ocean Tower, Tampa, FL. More information available from US FCC via Universal Licensing System and Coast Guard Vessel Documentation Center.

Last reported at 2017-Oct-19 05:30 UTC. Time now 2017-Oct-19 05:34 UTC.
Position N 39°28' W 074°09'.

Length 34 m; draft 4.1 m.

Type: Towing. MMSI: 367356580.

Date/timePositionNaut miles runAvg speedWind from/ knotsBaromVisibWave heightAir tempDewpointWater temp
2017-Oct-19 05:30N 39°28' W 074°09'4 7.5
2017-Oct-19 05:00N 39°25' W 074°12'4 7.5
2017-Oct-19 04:30N 39°22' W 074°15'4 7.6
2017-Oct-19 03:57N 39°19' W 074°19'4 7.6
2017-Oct-19 03:29N 39°16' W 074°22'4 7.6
2017-Oct-19 02:59N 39°13' W 074°26'4 7.6
2017-Oct-19 02:30N 39°11' W 074°29'5 7.6
2017-Oct-19 01:54N 39°08' W 074°33'3 7.6
2017-Oct-19 01:27N 39°05' W 074°36'3 7.6
2017-Oct-19 01:00N 39°02' W 074°39'5 7.5
2017-Oct-19 00:22N 38°58' W 074°42'3 7.5
2017-Oct-18 23:57N 38°56' W 074°44'4 7.4
2017-Oct-18 23:24N 38°53' W 074°48'3 7.2
2017-Oct-18 23:00N 38°50' W 074°50'4 7.6
2017-Oct-18 22:25N 38°46' W 074°50'3 7.7
2017-Oct-18 22:00N 38°43' W 074°50'49 6.9
2017-Oct-18 14:50N 37°56' W 075°07'7 7.0
2017-Oct-18 13:54N 37°50' W 075°12'3 7.0
2017-Oct-18 13:30N 37°48' W 075°13'4 7.0
2017-Oct-18 12:57N 37°44' W 075°16'3 7.0
2017-Oct-18 12:29N 37°41' W 075°18'5 6.9
2017-Oct-18 11:42N 37°37' W 075°20'49 6.4
2017-Oct-18 04:01N 36°56' W 075°55'2 7.5
2017-Oct-18 03:43N 36°57' W 075°58'2 7.5
2017-Oct-18 03:26N 36°57' W 076°00'3 6.5
2017-Oct-18 02:59N 36°57' W 076°04'14 4.0
2017-Oct-17 23:30N 36°52' W 076°20'3 2.7
2017-Oct-17 22:31N 36°51' W 076°18'1 5.0
2017-Oct-17 22:21N 36°50' W 076°18'1 2.3
2017-Oct-17 21:47N 36°49' W 076°17'1 3.8
2017-Oct-17 21:30N 36°48' W 076°18'1 1.9
2017-Oct-17 20:59N 36°47' W 076°18'1 1.4
2017-Oct-17 20:31N 36°46' W 076°18'0 0.0
2017-Oct-17 19:59N 36°46' W 076°18'0 0.0
2017-Oct-17 19:29N 36°46' W 076°18'0 0.0
2017-Oct-17 18:57N 36°46' W 076°18'0 0.0
2017-Oct-17 18:24N 36°46' W 076°18'0 0.0
2017-Oct-17 18:00N 36°46' W 076°18'0 0.0
2017-Oct-17 17:28N 36°46' W 076°18'0 0.3
2017-Oct-17 16:12N 36°46' W 076°18'1 6.3
2017-Oct-17 16:00N 36°47' W 076°18'2 4.9
2017-Oct-17 15:29N 36°50' W 076°18'4 7.2
2017-Oct-17 14:57N 36°53' W 076°20'11 7.2
2017-Oct-17 13:29N 36°59' W 076°09'511.2
2017-Oct-17 13:00N 36°58' W 076°03'611.2
2017-Oct-17 12:30N 36°57' W 075°56'399 9.2
2017-Oct-15 17:07N 42°13' W 070°39'110.4
2017-Oct-15 17:00N 42°14' W 070°40'510.0
2017-Oct-15 16:30N 42°18' W 070°44'611.2
2017-Oct-15 16:00N 42°19' W 070°52'611.1
2017-Oct-15 15:30N 42°20' W 070°59'4 7.3
2017-Oct-15 15:00N 42°22' W 071°03'0 0.0
2017-Oct-15 14:00N 42°22' W 071°03'0 0.0
2017-Oct-15 13:30N 42°22' W 071°03'0 0.0
2017-Oct-15 13:00N 42°22' W 071°03'0 0.0
2017-Oct-15 12:31N 42°22' W 071°03'0 0.0
2017-Oct-15 12:00N 42°22' W 071°03'0 0.2
2017-Oct-15 11:30N 42°22' W 071°03'0 0.1
2017-Oct-15 11:00N 42°22' W 071°03'1 1.2
2017-Oct-15 10:30N 42°23' W 071°03'0 0.8
2017-Oct-15 10:00N 42°22' W 071°03'0 0.1
2017-Oct-15 09:30N 42°23' W 071°03'1 1.1
2017-Oct-15 09:00N 42°22' W 071°03'0 0.7
2017-Oct-15 08:30N 42°22' W 071°03'0 0.7
2017-Oct-15 08:00N 42°23' W 071°03'0 0.0
2017-Oct-15 07:30N 42°23' W 071°03'0 0.0
2017-Oct-15 07:00N 42°23' W 071°03'0 0.0
2017-Oct-15 06:30N 42°23' W 071°03'0 0.0
2017-Oct-15 06:00N 42°23' W 071°03'0 0.0
2017-Oct-15 05:29N 42°23' W 071°03'0 0.0
2017-Oct-15 05:00N 42°23' W 071°03'0 0.0
2017-Oct-15 04:30N 42°23' W 071°03'0 0.0
2017-Oct-15 04:00N 42°23' W 071°03'0 0.0
2017-Oct-15 03:30N 42°23' W 071°03'0 0.0
2017-Oct-15 03:00N 42°23' W 071°03'0 0.0
2017-Oct-15 02:30N 42°23' W 071°03'0 0.0
2017-Oct-15 02:00N 42°23' W 071°03'0 0.0
2017-Oct-15 01:30N 42°23' W 071°03'0 0.9
2017-Oct-15 01:00N 42°22' W 071°03'0 0.1
2017-Oct-15 00:30N 42°22' W 071°03'0 0.8
2017-Oct-15 00:00N 42°23' W 071°03'1 1.4
2017-Oct-14 23:30N 42°22' W 071°03'1 1.2
2017-Oct-14 23:00N 42°23' W 071°03'0 0.0
2017-Oct-14 22:30N 42°23' W 071°03'0 0.0
2017-Oct-14 22:00N 42°23' W 071°03'0 0.0
2017-Oct-14 21:30N 42°23' W 071°03'0 0.1
2017-Oct-14 21:00N 42°23' W 071°03'0 0.0
2017-Oct-14 20:30N 42°23' W 071°03'0 0.0
2017-Oct-14 20:00N 42°23' W 071°03'0 0.2
2017-Oct-14 19:30N 42°23' W 071°03'0 0.0
2017-Oct-14 19:00N 42°23' W 071°03'0 0.0
2017-Oct-14 18:30N 42°23' W 071°03'0 0.0
2017-Oct-14 18:00N 42°23' W 071°03'0 0.0
2017-Oct-14 17:30N 42°23' W 071°03'0 0.0
2017-Oct-14 17:00N 42°23' W 071°03'0 0.0
2017-Oct-14 16:30N 42°23' W 071°03'0 0.0
2017-Oct-14 16:01N 42°23' W 071°03'0 0.2
2017-Oct-14 15:30N 42°23' W 071°03'0 0.0
2017-Oct-14 15:00N 42°23' W 071°03'0 0.0
2017-Oct-14 14:31N 42°23' W 071°03'0 0.0
2017-Oct-14 14:00N 42°23' W 071°03'0 0.0
2017-Oct-14 13:30N 42°23' W 071°03'0 0.0
2017-Oct-14 13:00N 42°23' W 071°03'0 0.0
2017-Oct-14 12:30N 42°23' W 071°03'0 0.0
2017-Oct-14 12:00N 42°23' W 071°03'0 0.0
2017-Oct-14 11:30N 42°23' W 071°03'0 0.0
2017-Oct-14 11:00N 42°23' W 071°03'0 0.0
2017-Oct-14 10:30N 42°23' W 071°03'0 0.0
2017-Oct-14 10:00N 42°23' W 071°03'0 0.0
2017-Oct-14 09:30N 42°23' W 071°03'0 0.0
2017-Oct-14 09:00N 42°23' W 071°03'0 0.0
2017-Oct-14 08:30N 42°23' W 071°03'0 0.0
2017-Oct-14 08:00N 42°23' W 071°03'0 0.0
2017-Oct-14 07:30N 42°23' W 071°03'0 0.0
2017-Oct-14 07:00N 42°23' W 071°03'0 0.0
2017-Oct-14 06:30N 42°23' W 071°03'0 0.0
2017-Oct-14 06:00N 42°23' W 071°03'0 0.0
2017-Oct-14 05:30N 42°23' W 071°03'0 0.0
2017-Oct-14 05:01N 42°23' W 071°03'0 0.0
2017-Oct-14 04:30N 42°23' W 071°03'0 0.0
2017-Oct-14 04:00N 42°23' W 071°03'0 0.0
2017-Oct-14 03:30N 42°23' W 071°03'0 0.0
2017-Oct-14 03:00N 42°23' W 071°03'0 0.0
2017-Oct-14 02:30N 42°23' W 071°03'0 0.0
2017-Oct-14 02:00N 42°23' W 071°03'0 0.0
2017-Oct-14 01:25N 42°23' W 071°03'0 0.0
2017-Oct-14 00:59N 42°23' W 071°03'0 0.0
2017-Oct-14 00:23N 42°23' W 071°03'0 0.0
2017-Oct-14 00:00N 42°23' W 071°03'0 0.0
2017-Oct-13 23:23N 42°23' W 071°03'0 0.0
2017-Oct-13 23:00N 42°23' W 071°03'0 0.6
2017-Oct-13 22:30N 42°23' W 071°03'0 0.2
2017-Oct-13 22:00N 42°23' W 071°03'0 0.0
2017-Oct-13 21:30N 42°23' W 071°03'0 0.0
2017-Oct-13 21:00N 42°23' W 071°03'0 0.0
2017-Oct-13 20:30N 42°23' W 071°03'0 0.0
2017-Oct-13 20:00N 42°23' W 071°03'1 1.0
2017-Oct-13 19:30N 42°23' W 071°03'2 3.4
2017-Oct-13 19:00N 42°21' W 071°02'3 5.4
2017-Oct-13 18:30N 42°20' W 070°58'2 4.5
2017-Oct-13 18:00N 42°22' W 070°56'4 8.7
2017-Oct-13 17:30N 42°23' W 070°50'5 9.1
2017-Oct-13 17:00N 42°24' W 070°44'5 9.4
2017-Oct-13 16:31N 42°26' W 070°38'2 3.6
2017-Oct-13 16:00N 42°26' W 070°36'1 2.7
2017-Oct-13 15:30N 42°26' W 070°38'3 7.0
2017-Oct-13 15:00N 42°25' W 070°42'4 7.0
2017-Oct-13 14:30N 42°24' W 070°47'4 7.1
2017-Oct-13 14:00N 42°23' W 070°51'4 7.2
2017-Oct-13 13:30N 42°21' W 070°56'3 6.5
2017-Oct-13 13:00N 42°20' W 070°60'3 6.5
2017-Oct-13 12:30N 42°22' W 071°03'0 0.6
2017-Oct-13 12:00N 42°23' W 071°03'0 0.5
2017-Oct-13 11:30N 42°22' W 071°03'0 0.0
2017-Oct-13 11:01N 42°22' W 071°03'0 0.0
2017-Oct-13 10:30N 42°22' W 071°03'0 0.0
2017-Oct-13 10:00N 42°22' W 071°03'0 0.0
2017-Oct-13 09:30N 42°22' W 071°03'0 0.0
2017-Oct-13 09:00N 42°22' W 071°03'0 0.0
2017-Oct-13 08:30N 42°22' W 071°03'0 0.0
2017-Oct-13 08:00N 42°22' W 071°03'0 0.1
2017-Oct-13 07:30N 42°22' W 071°03'3 6.7
2017-Oct-13 07:01N 42°20' W 070°60'1 2.8
2017-Oct-13 06:30N 42°20' W 070°58'3 6.9
2017-Oct-13 06:00N 42°22' W 070°54'4 7.9
2017-Oct-13 05:30N 42°23' W 070°49'4 8.8
2017-Oct-13 05:00N 42°25' W 070°43'4 8.7
2017-Oct-13 04:30N 42°26' W 070°37'1 2.1
2017-Oct-13 04:00N 42°26' W 070°36'0 0.3
2017-Oct-13 03:30N 42°26' W 070°36'2 4.9
2017-Oct-13 03:00N 42°25' W 070°39'3 6.9
2017-Oct-13 02:30N 42°24' W 070°44'3 7.0
2017-Oct-13 02:00N 42°24' W 070°48'4 7.1
2017-Oct-13 01:30N 42°23' W 070°53'3 6.4
2017-Oct-13 01:00N 42°21' W 070°56'3 6.2
2017-Oct-13 00:30N 42°20' W 071°01'2 4.9
2017-Oct-13 00:00N 42°22' W 071°03'1 1.1
2017-Oct-12 23:30N 42°23' W 071°03'1 1.8
2017-Oct-12 23:00N 42°22' W 071°03'4 7.0
2017-Oct-12 22:31N 42°20' W 070°59'1 2.5
2017-Oct-12 22:00N 42°20' W 070°57'4 7.6
2017-Oct-12 21:30N 42°23' W 070°53'4 9.0
2017-Oct-12 21:00N 42°24' W 070°47'5 9.1
2017-Oct-12 20:30N 42°25' W 070°41'4 8.5
2017-Oct-12 20:00N 42°26' W 070°35'1 1.3
2017-Oct-12 19:30N 42°26' W 070°36'2 4.2
2017-Oct-12 19:00N 42°25' W 070°39'3 6.0
2017-Oct-12 18:30N 42°25' W 070°43'3 6.1
2017-Oct-12 18:00N 42°24' W 070°47'3 6.2
2017-Oct-12 17:30N 42°23' W 070°51'3 5.2
2017-Oct-12 17:01N 42°22' W 070°54'3 5.7
2017-Oct-12 16:30N 42°20' W 070°57'3 5.2
2017-Oct-12 16:00N 42°20' W 071°00'2 4.5
2017-Oct-12 15:30N 42°22' W 071°03'1 1.6
2017-Oct-12 15:00N 42°23' W 071°03'0 0.4
2017-Oct-12 14:30N 42°22' W 071°03'4 7.4
2017-Oct-12 14:00N 42°20' W 070°59'1 2.0
2017-Oct-12 13:30N 42°20' W 070°58'3 5.1
2017-Oct-12 13:00N 42°22' W 070°55'4 7.7
2017-Oct-12 12:30N 42°23' W 070°50'4 8.0
2017-Oct-12 12:00N 42°24' W 070°45'4 8.0
2017-Oct-12 11:30N 42°25' W 070°40'4 7.7
2017-Oct-12 11:00N 42°26' W 070°35'1 2.5
2017-Oct-12 10:30N 42°26' W 070°36'2 3.4
2017-Oct-12 10:00N 42°26' W 070°39'3 5.6
2017-Oct-12 09:30N 42°25' W 070°42'3 5.5
2017-Oct-12 09:00N 42°24' W 070°46'3 5.4
2017-Oct-12 08:30N 42°23' W 070°49'3 5.7
2017-Oct-12 08:00N 42°23' W 070°53'2 4.8
2017-Oct-12 07:30N 42°21' W 070°55'2 4.6
2017-Oct-12 07:00N 42°20' W 070°58'3 5.0
2017-Oct-12 06:30N 42°21' W 071°01'2 4.1
2017-Oct-12 06:00N 42°23' W 071°03'0 0.4
2017-Oct-12 05:30N 42°22' W 071°03'1 2.7
2017-Oct-12 05:00N 42°21' W 071°02'3 5.8
2017-Oct-12 04:30N 42°20' W 070°58'2 4.3
2017-Oct-12 04:00N 42°21' W 070°56'3 6.5
2017-Oct-12 03:30N 42°23' W 070°52'4 8.5
2017-Oct-12 03:01N 42°24' W 070°46'4 8.4
2017-Oct-12 02:30N 42°25' W 070°41'4 7.9
2017-Oct-12 02:00N 42°26' W 070°36'1 1.5
2017-Oct-12 01:30N 42°26' W 070°36'3 5.6
2017-Oct-12 01:00N 42°25' W 070°40'4 7.4
2017-Oct-12 00:30N 42°24' W 070°45'4 7.6
2017-Oct-12 00:00N 42°23' W 070°50'4 7.4
2017-Oct-11 23:30N 42°22' W 070°55'4 7.0
2017-Oct-11 23:00N 42°20' W 070°58'3 6.8
2017-Oct-11 22:30N 42°22' W 071°02'1 2.3
2017-Oct-11 22:00N 42°23' W 071°03'0 0.3
2017-Oct-11 21:30N 42°23' W 071°03'4 7.7
2017-Oct-11 21:00N 42°20' W 070°59'2 4.3
2017-Oct-11 20:30N 42°21' W 070°56'5 9.0
2017-Oct-11 20:00N 42°23' W 070°51'5 9.6
2017-Oct-11 19:30N 42°24' W 070°44'5 9.7
2017-Oct-11 19:00N 42°26' W 070°38'1 2.7
2017-Oct-11 18:30N 42°26' W 070°36'2 3.9
2017-Oct-11 18:00N 42°26' W 070°39'3 6.8
2017-Oct-11 17:30N 42°25' W 070°43'3 6.9
2017-Oct-11 17:00N 42°24' W 070°48'11 0.7
2017-Oct-11 00:00N 42°22' W 071°03'1 1.9
2017-Oct-10 23:30N 42°23' W 071°03'0 0.2
2017-Oct-10 23:00N 42°23' W 071°03'0 0.5
2017-Oct-10 22:30N 42°23' W 071°03'3 5.9
2017-Oct-10 22:00N 42°20' W 071°00'2 3.7
2017-Oct-10 21:30N 42°20' W 070°58'3 6.8
2017-Oct-10 21:00N 42°22' W 070°54'4 8.6
2017-Oct-10 20:31N 42°24' W 070°49'4 8.7
2017-Oct-10 20:00N 42°25' W 070°43'4 8.6
2017-Oct-10 19:30N 42°26' W 070°37'2 3.2
2017-Oct-10 19:01N 42°26' W 070°35'2 3.0
2017-Oct-10 18:30N 42°26' W 070°37'3 6.8
2017-Oct-10 18:00N 42°25' W 070°42'4 7.2
2017-Oct-10 17:30N 42°24' W 070°46'4 7.3
2017-Oct-10 17:00N 42°23' W 070°51'3 6.7
2017-Oct-10 16:30N 42°22' W 070°55'3 5.2
2017-Oct-10 16:00N 42°20' W 070°58'3 5.7
2017-Oct-10 15:30N 42°21' W 071°01'1 1.9
2017-Oct-10 15:00N 42°22' W 071°02'1 0.9
2017-Oct-10 14:01N 42°22' W 071°03'4 7.5
2017-Oct-10 13:30N 42°20' W 070°59'2 4.4
2017-Oct-10 13:00N 42°21' W 070°56'4 7.9
2017-Oct-10 12:30N 42°23' W 070°52'5 9.6
2017-Oct-10 12:00N 42°24' W 070°45'5 9.3
2017-Oct-10 11:30N 42°25' W 070°39'3 6.0
2017-Oct-10 11:00N 42°26' W 070°35'1 2.9
2017-Oct-10 10:30N 42°26' W 070°37'4 7.0
2017-Oct-10 10:00N 42°25' W 070°42'4 7.4
2017-Oct-10 09:30N 42°24' W 070°46'4 7.4
2017-Oct-10 09:00N 42°23' W 070°51'3 6.8
2017-Oct-10 08:30N 42°22' W 070°56'3 5.9
2017-Oct-10 08:00N 42°20' W 070°59'3 6.2
2017-Oct-10 07:30N 42°22' W 071°02'1 2.1
2017-Oct-10 07:00N 42°23' W 071°03'1 1.4
2017-Oct-10 06:30N 42°22' W 071°03'3 5.8
2017-Oct-10 06:00N 42°20' W 070°60'1 2.7
2017-Oct-10 05:31N 42°20' W 070°58'4 7.5
2017-Oct-10 05:01N 42°22' W 070°54'4 8.1
2017-Oct-10 04:30N 42°24' W 070°49'4 8.3
2017-Oct-10 04:01N 42°25' W 070°43'4 8.3
2017-Oct-10 03:30N 42°26' W 070°38'2 3.0
2017-Oct-10 03:00N 42°26' W 070°36'2 3.9
2017-Oct-10 02:30N 42°26' W 070°38'4 7.5
2017-Oct-10 02:00N 42°25' W 070°43'4 7.4
2017-Oct-10 01:30N 42°24' W 070°48'4 7.5
2017-Oct-10 01:01N 42°23' W 070°53'3 5.9
2017-Oct-10 00:30N 42°21' W 070°56'3 6.4
2017-Oct-10 00:00N 42°20' W 070°60'3 5.9
2017-Oct-09 23:30N 42°22' W 071°03'1 1.1
2017-Oct-09 23:00N 42°23' W 071°03'0 0.5
2017-Oct-09 22:30N 42°22' W 071°03'0 0.0
2017-Oct-09 22:00N 42°22' W 071°03'0 0.0
2017-Oct-09 21:30N 42°22' W 071°03'1 1.8
2017-Oct-09 21:01N 42°22' W 071°02'3 6.4
2017-Oct-09 20:30N 42°20' W 070°58'2 4.2
2017-Oct-09 20:00N 42°21' W 070°56'4 8.1
2017-Oct-09 19:30N 42°23' W 070°51'5 9.2
2017-Oct-09 19:00N 42°24' W 070°45'5 9.4
2017-Oct-09 18:30N 42°25' W 070°39'3 5.2
2017-Oct-09 18:00N 42°26' W 070°36'2 3.7
2017-Oct-09 17:30N 42°26' W 070°38'4 7.3
2017-Oct-09 17:00N 42°25' W 070°43'4 7.2
2017-Oct-09 16:30N 42°24' W 070°48'4 7.2
2017-Oct-09 16:00N 42°23' W 070°52'3 6.1
2017-Oct-09 15:30N 42°21' W 070°56'2 4.8
2017-Oct-09 15:01N 42°20' W 070°59'3 5.2
2017-Oct-09 14:30N 42°21' W 071°02'1 1.7
2017-Oct-09 14:00N 42°22' W 071°03'1 1.8
2017-Oct-09 13:30N 42°23' W 071°03'0 0.2
2017-Oct-09 13:00N 42°23' W 071°03'3 6.2
2017-Oct-09 12:31N 42°20' W 071°00'2 4.3
2017-Oct-09 12:00N 42°20' W 070°57'3 6.0
2017-Oct-09 11:30N 42°22' W 070°54'4 8.8
2017-Oct-09 11:00N 42°23' W 070°49'4 8.8
2017-Oct-09 10:30N 42°25' W 070°43'4 8.6
2017-Oct-09 10:01N 42°26' W 070°37'1 1.5
2017-Oct-09 09:30N 42°26' W 070°36'3 6.1
2017-Oct-09 09:00N 42°25' W 070°40'4 7.8
2017-Oct-09 08:30N 42°24' W 070°45'4 7.6
2017-Oct-09 08:00N 42°23' W 070°50'4 7.3
2017-Oct-09 07:30N 42°22' W 070°55'3 6.1
2017-Oct-09 07:01N 42°20' W 070°58'3 6.0
2017-Oct-09 06:30N 42°21' W 071°02'2 3.2
2017-Oct-09 06:00N 42°23' W 071°03'1 1.0
2017-Oct-09 05:30N 42°22' W 071°03'  
Track history (hours):
 
Tides and Currents Weather Stations Pressure Air Temp Water Temp Dewpoint Dewpoint Depression Visibility Wind Speed Wind Dir Waves Ship Positions

Ocean Tower

Owner: Tug Ocean Tower, Tampa, FL. More information available from US FCC via Universal Licensing System and Coast Guard Vessel Documentation Center.

Last reported at 2017-Oct-19 05:30 UTC. Time now 2017-Oct-19 05:34 UTC.
Position N 39°28' W 074°09'.

Length 34 m; draft 4.1 m.

Type: Towing. MMSI: 367356580.

Date/timePositionNaut miles runAvg speedWind from/ knotsBaromVisibWave heightAir tempDewpointWater temp
2017-Oct-19 05:30N 39°28' W 074°09'4 7.5
2017-Oct-19 05:00N 39°25' W 074°12'4 7.5
2017-Oct-19 04:30N 39°22' W 074°15'4 7.6
2017-Oct-19 03:57N 39°19' W 074°19'4 7.6
2017-Oct-19 03:29N 39°16' W 074°22'4 7.6
2017-Oct-19 02:59N 39°13' W 074°26'4 7.6
2017-Oct-19 02:30N 39°11' W 074°29'5 7.6
2017-Oct-19 01:54N 39°08' W 074°33'3 7.6
2017-Oct-19 01:27N 39°05' W 074°36'3 7.6
2017-Oct-19 01:00N 39°02' W 074°39'5 7.5
2017-Oct-19 00:22N 38°58' W 074°42'3 7.5
2017-Oct-18 23:57N 38°56' W 074°44'4 7.4
2017-Oct-18 23:24N 38°53' W 074°48'3 7.2
2017-Oct-18 23:00N 38°50' W 074°50'4 7.6
2017-Oct-18 22:25N 38°46' W 074°50'3 7.7
2017-Oct-18 22:00N 38°43' W 074°50'49 6.9
2017-Oct-18 14:50N 37°56' W 075°07'7 7.0
2017-Oct-18 13:54N 37°50' W 075°12'3 7.0
2017-Oct-18 13:30N 37°48' W 075°13'4 7.0
2017-Oct-18 12:57N 37°44' W 075°16'3 7.0
2017-Oct-18 12:29N 37°41' W 075°18'5 6.9
2017-Oct-18 11:42N 37°37' W 075°20'49 6.4
2017-Oct-18 04:01N 36°56' W 075°55'2 7.5
2017-Oct-18 03:43N 36°57' W 075°58'2 7.5
2017-Oct-18 03:26N 36°57' W 076°00'3 6.5
2017-Oct-18 02:59N 36°57' W 076°04'14 4.0
2017-Oct-17 23:30N 36°52' W 076°20'3 2.7
2017-Oct-17 22:31N 36°51' W 076°18'1 5.0
2017-Oct-17 22:21N 36°50' W 076°18'1 2.3
2017-Oct-17 21:47N 36°49' W 076°17'1 3.8
2017-Oct-17 21:30N 36°48' W 076°18'1 1.9
2017-Oct-17 20:59N 36°47' W 076°18'1 1.4
2017-Oct-17 20:31N 36°46' W 076°18'0 0.0
2017-Oct-17 19:59N 36°46' W 076°18'0 0.0
2017-Oct-17 19:29N 36°46' W 076°18'0 0.0
2017-Oct-17 18:57N 36°46' W 076°18'0 0.0
2017-Oct-17 18:24N 36°46' W 076°18'0 0.0
2017-Oct-17 18:00N 36°46' W 076°18'0 0.0
2017-Oct-17 17:28N 36°46' W 076°18'0 0.3
2017-Oct-17 16:12N 36°46' W 076°18'1 6.3
2017-Oct-17 16:00N 36°47' W 076°18'2 4.9
2017-Oct-17 15:29N 36°50' W 076°18'4 7.2
2017-Oct-17 14:57N 36°53' W 076°20'11 7.2
2017-Oct-17 13:29N 36°59' W 076°09'511.2
2017-Oct-17 13:00N 36°58' W 076°03'611.2
2017-Oct-17 12:30N 36°57' W 075°56'399 9.2
2017-Oct-15 17:07N 42°13' W 070°39'110.4
2017-Oct-15 17:00N 42°14' W 070°40'510.0
2017-Oct-15 16:30N 42°18' W 070°44'611.2
2017-Oct-15 16:00N 42°19' W 070°52'611.1
2017-Oct-15 15:30N 42°20' W 070°59'4 7.3
2017-Oct-15 15:00N 42°22' W 071°03'0 0.0
2017-Oct-15 14:00N 42°22' W 071°03'0 0.0
2017-Oct-15 13:30N 42°22' W 071°03'0 0.0
2017-Oct-15 13:00N 42°22' W 071°03'0 0.0
2017-Oct-15 12:31N 42°22' W 071°03'0 0.0
2017-Oct-15 12:00N 42°22' W 071°03'0 0.2
2017-Oct-15 11:30N 42°22' W 071°03'0 0.1
2017-Oct-15 11:00N 42°22' W 071°03'1 1.2
2017-Oct-15 10:30N 42°23' W 071°03'0 0.8
2017-Oct-15 10:00N 42°22' W 071°03'0 0.1
2017-Oct-15 09:30N 42°23' W 071°03'1 1.1
2017-Oct-15 09:00N 42°22' W 071°03'0 0.7
2017-Oct-15 08:30N 42°22' W 071°03'0 0.7
2017-Oct-15 08:00N 42°23' W 071°03'0 0.0
2017-Oct-15 07:30N 42°23' W 071°03'0 0.0
2017-Oct-15 07:00N 42°23' W 071°03'0 0.0
2017-Oct-15 06:30N 42°23' W 071°03'0 0.0
2017-Oct-15 06:00N 42°23' W 071°03'0 0.0
2017-Oct-15 05:29N 42°23' W 071°03'0 0.0
2017-Oct-15 05:00N 42°23' W 071°03'0 0.0
2017-Oct-15 04:30N 42°23' W 071°03'0 0.0
2017-Oct-15 04:00N 42°23' W 071°03'0 0.0
2017-Oct-15 03:30N 42°23' W 071°03'0 0.0
2017-Oct-15 03:00N 42°23' W 071°03'0 0.0
2017-Oct-15 02:30N 42°23' W 071°03'0 0.0
2017-Oct-15 02:00N 42°23' W 071°03'0 0.0
2017-Oct-15 01:30N 42°23' W 071°03'0 0.9
2017-Oct-15 01:00N 42°22' W 071°03'0 0.1
2017-Oct-15 00:30N 42°22' W 071°03'0 0.8
2017-Oct-15 00:00N 42°23' W 071°03'1 1.4
2017-Oct-14 23:30N 42°22' W 071°03'1 1.2
2017-Oct-14 23:00N 42°23' W 071°03'0 0.0
2017-Oct-14 22:30N 42°23' W 071°03'0 0.0
2017-Oct-14 22:00N 42°23' W 071°03'0 0.0
2017-Oct-14 21:30N 42°23' W 071°03'0 0.1
2017-Oct-14 21:00N 42°23' W 071°03'0 0.0
2017-Oct-14 20:30N 42°23' W 071°03'0 0.0
2017-Oct-14 20:00N 42°23' W 071°03'0 0.2
2017-Oct-14 19:30N 42°23' W 071°03'0 0.0
2017-Oct-14 19:00N 42°23' W 071°03'0 0.0
2017-Oct-14 18:30N 42°23' W 071°03'0 0.0
2017-Oct-14 18:00N 42°23' W 071°03'0 0.0
2017-Oct-14 17:30N 42°23' W 071°03'0 0.0
2017-Oct-14 17:00N 42°23' W 071°03'0 0.0
2017-Oct-14 16:30N 42°23' W 071°03'0 0.0
2017-Oct-14 16:01N 42°23' W 071°03'0 0.2
2017-Oct-14 15:30N 42°23' W 071°03'0 0.0
2017-Oct-14 15:00N 42°23' W 071°03'0 0.0
2017-Oct-14 14:31N 42°23' W 071°03'0 0.0
2017-Oct-14 14:00N 42°23' W 071°03'0 0.0
2017-Oct-14 13:30N 42°23' W 071°03'0 0.0
2017-Oct-14 13:00N 42°23' W 071°03'0 0.0
2017-Oct-14 12:30N 42°23' W 071°03'0 0.0
2017-Oct-14 12:00N 42°23' W 071°03'0 0.0
2017-Oct-14 11:30N 42°23' W 071°03'0 0.0
2017-Oct-14 11:00N 42°23' W 071°03'0 0.0
2017-Oct-14 10:30N 42°23' W 071°03'0 0.0
2017-Oct-14 10:00N 42°23' W 071°03'0 0.0
2017-Oct-14 09:30N 42°23' W 071°03'0 0.0
2017-Oct-14 09:00N 42°23' W 071°03'0 0.0
2017-Oct-14 08:30N 42°23' W 071°03'0 0.0
2017-Oct-14 08:00N 42°23' W 071°03'0 0.0
2017-Oct-14 07:30N 42°23' W 071°03'0 0.0
2017-Oct-14 07:00N 42°23' W 071°03'0 0.0
2017-Oct-14 06:30N 42°23' W 071°03'0 0.0
2017-Oct-14 06:00N 42°23' W 071°03'0 0.0
2017-Oct-14 05:30N 42°23' W 071°03'0 0.0
2017-Oct-14 05:01N 42°23' W 071°03'0 0.0
2017-Oct-14 04:30N 42°23' W 071°03'0 0.0
2017-Oct-14 04:00N 42°23' W 071°03'0 0.0
2017-Oct-14 03:30N 42°23' W 071°03'0 0.0
2017-Oct-14 03:00N 42°23' W 071°03'0 0.0
2017-Oct-14 02:30N 42°23' W 071°03'0 0.0
2017-Oct-14 02:00N 42°23' W 071°03'0 0.0
2017-Oct-14 01:25N 42°23' W 071°03'0 0.0
2017-Oct-14 00:59N 42°23' W 071°03'0 0.0
2017-Oct-14 00:23N 42°23' W 071°03'0 0.0
2017-Oct-14 00:00N 42°23' W 071°03'0 0.0
2017-Oct-13 23:23N 42°23' W 071°03'0 0.0
2017-Oct-13 23:00N 42°23' W 071°03'0 0.6
2017-Oct-13 22:30N 42°23' W 071°03'0 0.2
2017-Oct-13 22:00N 42°23' W 071°03'0 0.0
2017-Oct-13 21:30N 42°23' W 071°03'0 0.0
2017-Oct-13 21:00N 42°23' W 071°03'0 0.0
2017-Oct-13 20:30N 42°23' W 071°03'0 0.0
2017-Oct-13 20:00N 42°23' W 071°03'1 1.0
2017-Oct-13 19:30N 42°23' W 071°03'2 3.4
2017-Oct-13 19:00N 42°21' W 071°02'3 5.4
2017-Oct-13 18:30N 42°20' W 070°58'2 4.5
2017-Oct-13 18:00N 42°22' W 070°56'4 8.7
2017-Oct-13 17:30N 42°23' W 070°50'5 9.1
2017-Oct-13 17:00N 42°24' W 070°44'5 9.4
2017-Oct-13 16:31N 42°26' W 070°38'2 3.6
2017-Oct-13 16:00N 42°26' W 070°36'1 2.7
2017-Oct-13 15:30N 42°26' W 070°38'3 7.0
2017-Oct-13 15:00N 42°25' W 070°42'4 7.0
2017-Oct-13 14:30N 42°24' W 070°47'4 7.1
2017-Oct-13 14:00N 42°23' W 070°51'4 7.2
2017-Oct-13 13:30N 42°21' W 070°56'3 6.5
2017-Oct-13 13:00N 42°20' W 070°60'3 6.5
2017-Oct-13 12:30N 42°22' W 071°03'0 0.6
2017-Oct-13 12:00N 42°23' W 071°03'0 0.5
2017-Oct-13 11:30N 42°22' W 071°03'0 0.0
2017-Oct-13 11:01N 42°22' W 071°03'0 0.0
2017-Oct-13 10:30N 42°22' W 071°03'0 0.0
2017-Oct-13 10:00N 42°22' W 071°03'0 0.0
2017-Oct-13 09:30N 42°22' W 071°03'0 0.0
2017-Oct-13 09:00N 42°22' W 071°03'0 0.0
2017-Oct-13 08:30N 42°22' W 071°03'0 0.0
2017-Oct-13 08:00N 42°22' W 071°03'0 0.1
2017-Oct-13 07:30N 42°22' W 071°03'3 6.7
2017-Oct-13 07:01N 42°20' W 070°60'1 2.8
2017-Oct-13 06:30N 42°20' W 070°58'3 6.9
2017-Oct-13 06:00N 42°22' W 070°54'4 7.9
2017-Oct-13 05:30N 42°23' W 070°49'4 8.8
2017-Oct-13 05:00N 42°25' W 070°43'4 8.7
2017-Oct-13 04:30N 42°26' W 070°37'1 2.1
2017-Oct-13 04:00N 42°26' W 070°36'0 0.3
2017-Oct-13 03:30N 42°26' W 070°36'2 4.9
2017-Oct-13 03:00N 42°25' W 070°39'3 6.9
2017-Oct-13 02:30N 42°24' W 070°44'3 7.0
2017-Oct-13 02:00N 42°24' W 070°48'4 7.1
2017-Oct-13 01:30N 42°23' W 070°53'3 6.4
2017-Oct-13 01:00N 42°21' W 070°56'3 6.2
2017-Oct-13 00:30N 42°20' W 071°01'2 4.9
2017-Oct-13 00:00N 42°22' W 071°03'1 1.1
2017-Oct-12 23:30N 42°23' W 071°03'1 1.8
2017-Oct-12 23:00N 42°22' W 071°03'4 7.0
2017-Oct-12 22:31N 42°20' W 070°59'1 2.5
2017-Oct-12 22:00N 42°20' W 070°57'4 7.6
2017-Oct-12 21:30N 42°23' W 070°53'4 9.0
2017-Oct-12 21:00N 42°24' W 070°47'5 9.1
2017-Oct-12 20:30N 42°25' W 070°41'4 8.5
2017-Oct-12 20:00N 42°26' W 070°35'1 1.3
2017-Oct-12 19:30N 42°26' W 070°36'2 4.2
2017-Oct-12 19:00N 42°25' W 070°39'3 6.0
2017-Oct-12 18:30N 42°25' W 070°43'3 6.1
2017-Oct-12 18:00N 42°24' W 070°47'3 6.2
2017-Oct-12 17:30N 42°23' W 070°51'3 5.2
2017-Oct-12 17:01N 42°22' W 070°54'3 5.7
2017-Oct-12 16:30N 42°20' W 070°57'3 5.2
2017-Oct-12 16:00N 42°20' W 071°00'2 4.5
2017-Oct-12 15:30N 42°22' W 071°03'1 1.6
2017-Oct-12 15:00N 42°23' W 071°03'0 0.4
2017-Oct-12 14:30N 42°22' W 071°03'4 7.4
2017-Oct-12 14:00N 42°20' W 070°59'1 2.0
2017-Oct-12 13:30N 42°20' W 070°58'3 5.1
2017-Oct-12 13:00N 42°22' W 070°55'4 7.7
2017-Oct-12 12:30N 42°23' W 070°50'4 8.0
2017-Oct-12 12:00N 42°24' W 070°45'4 8.0
2017-Oct-12 11:30N 42°25' W 070°40'4 7.7
2017-Oct-12 11:00N 42°26' W 070°35'1 2.5
2017-Oct-12 10:30N 42°26' W 070°36'2 3.4
2017-Oct-12 10:00N 42°26' W 070°39'3 5.6
2017-Oct-12 09:30N 42°25' W 070°42'3 5.5
2017-Oct-12 09:00N 42°24' W 070°46'3 5.4
2017-Oct-12 08:30N 42°23' W 070°49'3 5.7
2017-Oct-12 08:00N 42°23' W 070°53'2 4.8
2017-Oct-12 07:30N 42°21' W 070°55'2 4.6
2017-Oct-12 07:00N 42°20' W 070°58'3 5.0
2017-Oct-12 06:30N 42°21' W 071°01'2 4.1
2017-Oct-12 06:00N 42°23' W 071°03'0 0.4
2017-Oct-12 05:30N 42°22' W 071°03'1 2.7
2017-Oct-12 05:00N 42°21' W 071°02'3 5.8
2017-Oct-12 04:30N 42°20' W 070°58'2 4.3
2017-Oct-12 04:00N 42°21' W 070°56'3 6.5
2017-Oct-12 03:30N 42°23' W 070°52'4 8.5
2017-Oct-12 03:01N 42°24' W 070°46'4 8.4
2017-Oct-12 02:30N 42°25' W 070°41'4 7.9
2017-Oct-12 02:00N 42°26' W 070°36'1 1.5
2017-Oct-12 01:30N 42°26' W 070°36'3 5.6
2017-Oct-12 01:00N 42°25' W 070°40'4 7.4
2017-Oct-12 00:30N 42°24' W 070°45'4 7.6
2017-Oct-12 00:00N 42°23' W 070°50'4 7.4
2017-Oct-11 23:30N 42°22' W 070°55'4 7.0
2017-Oct-11 23:00N 42°20' W 070°58'3 6.8
2017-Oct-11 22:30N 42°22' W 071°02'1 2.3
2017-Oct-11 22:00N 42°23' W 071°03'0 0.3
2017-Oct-11 21:30N 42°23' W 071°03'4 7.7
2017-Oct-11 21:00N 42°20' W 070°59'2 4.3
2017-Oct-11 20:30N 42°21' W 070°56'5 9.0
2017-Oct-11 20:00N 42°23' W 070°51'5 9.6
2017-Oct-11 19:30N 42°24' W 070°44'5 9.7
2017-Oct-11 19:00N 42°26' W 070°38'1 2.7
2017-Oct-11 18:30N 42°26' W 070°36'2 3.9
2017-Oct-11 18:00N 42°26' W 070°39'3 6.8
2017-Oct-11 17:30N 42°25' W 070°43'3 6.9
2017-Oct-11 17:00N 42°24' W 070°48'11 0.7
2017-Oct-11 00:00N 42°22' W 071°03'1 1.9
2017-Oct-10 23:30N 42°23' W 071°03'0 0.2
2017-Oct-10 23:00N 42°23' W 071°03'0 0.5
2017-Oct-10 22:30N 42°23' W 071°03'3 5.9
2017-Oct-10 22:00N 42°20' W 071°00'2 3.7
2017-Oct-10 21:30N 42°20' W 070°58'3 6.8
2017-Oct-10 21:00N 42°22' W 070°54'4 8.6
2017-Oct-10 20:31N 42°24' W 070°49'4 8.7
2017-Oct-10 20:00N 42°25' W 070°43'4 8.6
2017-Oct-10 19:30N 42°26' W 070°37'2 3.2
2017-Oct-10 19:01N 42°26' W 070°35'2 3.0
2017-Oct-10 18:30N 42°26' W 070°37'3 6.8
2017-Oct-10 18:00N 42°25' W 070°42'4 7.2
2017-Oct-10 17:30N 42°24' W 070°46'4 7.3
2017-Oct-10 17:00N 42°23' W 070°51'3 6.7
2017-Oct-10 16:30N 42°22' W 070°55'3 5.2
2017-Oct-10 16:00N 42°20' W 070°58'3 5.7
2017-Oct-10 15:30N 42°21' W 071°01'1 1.9
2017-Oct-10 15:00N 42°22' W 071°02'1 0.9
2017-Oct-10 14:01N 42°22' W 071°03'4 7.5
2017-Oct-10 13:30N 42°20' W 070°59'2 4.4
2017-Oct-10 13:00N 42°21' W 070°56'4 7.9
2017-Oct-10 12:30N 42°23' W 070°52'5 9.6
2017-Oct-10 12:00N 42°24' W 070°45'5 9.3
2017-Oct-10 11:30N 42°25' W 070°39'3 6.0
2017-Oct-10 11:00N 42°26' W 070°35'1 2.9
2017-Oct-10 10:30N 42°26' W 070°37'4 7.0
2017-Oct-10 10:00N 42°25' W 070°42'4 7.4
2017-Oct-10 09:30N 42°24' W 070°46'4 7.4
2017-Oct-10 09:00N 42°23' W 070°51'3 6.8
2017-Oct-10 08:30N 42°22' W 070°56'3 5.9
2017-Oct-10 08:00N 42°20' W 070°59'3 6.2
2017-Oct-10 07:30N 42°22' W 071°02'1 2.1
2017-Oct-10 07:00N 42°23' W 071°03'1 1.4
2017-Oct-10 06:30N 42°22' W 071°03'3 5.8
2017-Oct-10 06:00N 42°20' W 070°60'1 2.7
2017-Oct-10 05:31N 42°20' W 070°58'4 7.5
2017-Oct-10 05:01N 42°22' W 070°54'4 8.1
2017-Oct-10 04:30N 42°24' W 070°49'4 8.3
2017-Oct-10 04:01N 42°25' W 070°43'4 8.3
2017-Oct-10 03:30N 42°26' W 070°38'2 3.0
2017-Oct-10 03:00N 42°26' W 070°36'2 3.9
2017-Oct-10 02:30N 42°26' W 070°38'4 7.5
2017-Oct-10 02:00N 42°25' W 070°43'4 7.4
2017-Oct-10 01:30N 42°24' W 070°48'4 7.5
2017-Oct-10 01:01N 42°23' W 070°53'3 5.9
2017-Oct-10 00:30N 42°21' W 070°56'3 6.4
2017-Oct-10 00:00N 42°20' W 070°60'3 5.9
2017-Oct-09 23:30N 42°22' W 071°03'1 1.1
2017-Oct-09 23:00N 42°23' W 071°03'0 0.5
2017-Oct-09 22:30N 42°22' W 071°03'0 0.0
2017-Oct-09 22:00N 42°22' W 071°03'0 0.0
2017-Oct-09 21:30N 42°22' W 071°03'1 1.8
2017-Oct-09 21:01N 42°22' W 071°02'3 6.4
2017-Oct-09 20:30N 42°20' W 070°58'2 4.2
2017-Oct-09 20:00N 42°21' W 070°56'4 8.1
2017-Oct-09 19:30N 42°23' W 070°51'5 9.2
2017-Oct-09 19:00N 42°24' W 070°45'5 9.4
2017-Oct-09 18:30N 42°25' W 070°39'3 5.2
2017-Oct-09 18:00N 42°26' W 070°36'2 3.7
2017-Oct-09 17:30N 42°26' W 070°38'4 7.3
2017-Oct-09 17:00N 42°25' W 070°43'4 7.2
2017-Oct-09 16:30N 42°24' W 070°48'4 7.2
2017-Oct-09 16:00N 42°23' W 070°52'3 6.1
2017-Oct-09 15:30N 42°21' W 070°56'2 4.8
2017-Oct-09 15:01N 42°20' W 070°59'3 5.2
2017-Oct-09 14:30N 42°21' W 071°02'1 1.7
2017-Oct-09 14:00N 42°22' W 071°03'1 1.8
2017-Oct-09 13:30N 42°23' W 071°03'0 0.2
2017-Oct-09 13:00N 42°23' W 071°03'3 6.2
2017-Oct-09 12:31N 42°20' W 071°00'2 4.3
2017-Oct-09 12:00N 42°20' W 070°57'3 6.0
2017-Oct-09 11:30N 42°22' W 070°54'4 8.8
2017-Oct-09 11:00N 42°23' W 070°49'4 8.8
2017-Oct-09 10:30N 42°25' W 070°43'4 8.6
2017-Oct-09 10:01N 42°26' W 070°37'1 1.5
2017-Oct-09 09:30N 42°26' W 070°36'3 6.1
2017-Oct-09 09:00N 42°25' W 070°40'4 7.8
2017-Oct-09 08:30N 42°24' W 070°45'4 7.6
2017-Oct-09 08:00N 42°23' W 070°50'4 7.3
2017-Oct-09 07:30N 42°22' W 070°55'3 6.1
2017-Oct-09 07:01N 42°20' W 070°58'3 6.0
2017-Oct-09 06:30N 42°21' W 071°02'2 3.2
2017-Oct-09 06:00N 42°23' W 071°03'1 1.0
2017-Oct-09 05:30N 42°22' W 071°03'  

Dump ship's entire track history